sensor_id;sensor_type;location;lat;lon;timestamp;temperature;humidity
21772;DHT22;11047;47.904;8.110;2024-02-26T00:02:43;4.00;99.90
21772;DHT22;11047;47.904;8.110;2024-02-26T00:05:09;4.40;99.90
21772;DHT22;11047;47.904;8.110;2024-02-26T00:07:36;4.00;99.90
21772;DHT22;11047;47.904;8.110;2024-02-26T00:10:05;4.10;99.90
21772;DHT22;11047;47.904;8.110;2024-02-26T00:12:32;4.10;99.90
21772;DHT22;11047;47.904;8.110;2024-02-26T00:14:59;5.10;99.90
21772;DHT22;11047;47.904;8.110;2024-02-26T00:17:26;5.40;99.90
21772;DHT22;11047;47.904;8.110;2024-02-26T00:19:55;4.80;99.90
21772;DHT22;11047;47.904;8.110;2024-02-26T00:22:21;5.20;99.90
21772;DHT22;11047;47.904;8.110;2024-02-26T00:24:48;5.40;99.90
21772;DHT22;11047;47.904;8.110;2024-02-26T00:27:15;5.10;99.90
21772;DHT22;11047;47.904;8.110;2024-02-26T00:29:42;5.50;99.90
21772;DHT22;11047;47.904;8.110;2024-02-26T00:32:09;4.70;99.90
21772;DHT22;11047;47.904;8.110;2024-02-26T00:34:36;4.70;99.90
21772;DHT22;11047;47.904;8.110;2024-02-26T00:37:04;5.10;99.90
21772;DHT22;11047;47.904;8.110;2024-02-26T00:39:31;5.00;99.90
21772;DHT22;11047;47.904;8.110;2024-02-26T00:41:58;5.00;99.90
21772;DHT22;11047;47.904;8.110;2024-02-26T00:44:25;5.70;99.90
21772;DHT22;11047;47.904;8.110;2024-02-26T00:46:52;4.80;99.90
21772;DHT22;11047;47.904;8.110;2024-02-26T00:49:19;5.30;99.90
21772;DHT22;11047;47.904;8.110;2024-02-26T00:51:46;5.30;99.90
21772;DHT22;11047;47.904;8.110;2024-02-26T00:54:15;4.80;99.90
21772;DHT22;11047;47.904;8.110;2024-02-26T00:56:41;4.80;99.90
21772;DHT22;11047;47.904;8.110;2024-02-26T00:59:08;4.80;99.90
21772;DHT22;11047;47.904;8.110;2024-02-26T01:01:35;4.70;99.90
21772;DHT22;11047;47.904;8.110;2024-02-26T01:04:03;4.70;99.90
21772;DHT22;11047;47.904;8.110;2024-02-26T01:06:29;4.70;99.90
21772;DHT22;11047;47.904;8.110;2024-02-26T01:08:56;4.70;99.90
21772;DHT22;11047;47.904;8.110;2024-02-26T01:11:25;4.60;99.90
21772;DHT22;11047;47.904;8.110;2024-02-26T01:13:52;4.60;99.90
21772;DHT22;11047;47.904;8.110;2024-02-26T01:16:22;4.60;99.90
21772;DHT22;11047;47.904;8.110;2024-02-26T01:18:49;4.60;99.90
21772;DHT22;11047;47.904;8.110;2024-02-26T01:21:16;4.50;99.90
21772;DHT22;11047;47.904;8.110;2024-02-26T01:23:43;4.60;99.90
21772;DHT22;11047;47.904;8.110;2024-02-26T01:26:10;4.80;99.90
21772;DHT22;11047;47.904;8.110;2024-02-26T01:28:38;5.40;99.90
21772;DHT22;11047;47.904;8.110;2024-02-26T01:31:05;5.30;99.90
21772;DHT22;11047;47.904;8.110;2024-02-26T01:33:34;5.10;99.90
21772;DHT22;11047;47.904;8.110;2024-02-26T01:36:01;5.40;99.90
21772;DHT22;11047;47.904;8.110;2024-02-26T01:38:28;4.40;99.90
21772;DHT22;11047;47.904;8.110;2024-02-26T01:40:55;4.70;99.90
21772;DHT22;11047;47.904;8.110;2024-02-26T01:43:22;4.90;99.90
21772;DHT22;11047;47.904;8.110;2024-02-26T01:45:50;4.40;99.90
21772;DHT22;11047;47.904;8.110;2024-02-26T01:48:17;4.40;99.90
21772;DHT22;11047;47.904;8.110;2024-02-26T01:50:44;4.40;99.90
21772;DHT22;11047;47.904;8.110;2024-02-26T01:53:12;4.90;99.90
21772;DHT22;11047;47.904;8.110;2024-02-26T01:55:39;4.40;99.90
21772;DHT22;11047;47.904;8.110;2024-02-26T01:58:07;5.10;99.90
21772;DHT22;11047;47.904;8.110;2024-02-26T02:00:34;4.40;99.90
21772;DHT22;11047;47.904;8.110;2024-02-26T02:03:03;4.40;99.90
21772;DHT22;11047;47.904;8.110;2024-02-26T02:05:30;4.30;99.90
21772;DHT22;11047;47.904;8.110;2024-02-26T02:07:58;4.60;99.90
21772;DHT22;11047;47.904;8.110;2024-02-26T02:10:26;4.40;99.90
21772;DHT22;11047;47.904;8.110;2024-02-26T02:12:53;4.30;99.90
21772;DHT22;11047;47.904;8.110;2024-02-26T02:15:20;4.90;99.90
21772;DHT22;11047;47.904;8.110;2024-02-26T02:17:48;4.70;99.90
21772;DHT22;11047;47.904;8.110;2024-02-26T02:20:17;4.60;99.90
21772;DHT22;11047;47.904;8.110;2024-02-26T02:22:46;4.20;99.90
21772;DHT22;11047;47.904;8.110;2024-02-26T02:25:13;4.20;99.90
21772;DHT22;11047;47.904;8.110;2024-02-26T02:27:41;4.30;99.90
21772;DHT22;11047;47.904;8.110;2024-02-26T02:30:11;4.30;99.90
21772;DHT22;11047;47.904;8.110;2024-02-26T02:32:40;4.30;99.90
21772;DHT22;11047;47.904;8.110;2024-02-26T02:35:07;4.30;99.90
21772;DHT22;11047;47.904;8.110;2024-02-26T02:37:34;4.30;99.90
21772;DHT22;11047;47.904;8.110;2024-02-26T02:40:05;5.00;99.90
21772;DHT22;11047;47.904;8.110;2024-02-26T02:42:32;4.30;99.90
21772;DHT22;11047;47.904;8.110;2024-02-26T02:44:59;4.30;99.90
21772;DHT22;11047;47.904;8.110;2024-02-26T02:47:26;4.20;99.90
21772;DHT22;11047;47.904;8.110;2024-02-26T02:49:53;4.60;99.90
21772;DHT22;11047;47.904;8.110;2024-02-26T02:52:20;4.70;99.90
21772;DHT22;11047;47.904;8.110;2024-02-26T02:54:46;4.40;99.90
21772;DHT22;11047;47.904;8.110;2024-02-26T02:57:15;4.10;99.90
21772;DHT22;11047;47.904;8.110;2024-02-26T02:59:42;4.50;99.90
21772;DHT22;11047;47.904;8.110;2024-02-26T03:02:09;4.70;99.90
21772;DHT22;11047;47.904;8.110;2024-02-26T03:04:36;4.10;99.90
21772;DHT22;11047;47.904;8.110;2024-02-26T03:07:03;4.60;99.90
21772;DHT22;11047;47.904;8.110;2024-02-26T03:09:30;4.10;99.90
21772;DHT22;11047;47.904;8.110;2024-02-26T03:11:57;4.10;99.90
21772;DHT22;11047;47.904;8.110;2024-02-26T03:14:25;4.10;99.90
21772;DHT22;11047;47.904;8.110;2024-02-26T03:16:54;4.10;99.90
21772;DHT22;11047;47.904;8.110;2024-02-26T03:19:21;4.70;99.90
21772;DHT22;11047;47.904;8.110;2024-02-26T03:21:47;4.10;99.90
21772;DHT22;11047;47.904;8.110;2024-02-26T03:24:14;4.30;99.90
21772;DHT22;11047;47.904;8.110;2024-02-26T03:26:41;4.00;99.90
21772;DHT22;11047;47.904;8.110;2024-02-26T03:29:08;3.90;99.90
21772;DHT22;11047;47.904;8.110;2024-02-26T03:31:37;3.90;99.90
21772;DHT22;11047;47.904;8.110;2024-02-26T03:34:04;3.90;99.90
21772;DHT22;11047;47.904;8.110;2024-02-26T03:36:31;4.10;99.90
21772;DHT22;11047;47.904;8.110;2024-02-26T03:38:58;3.90;99.90
21772;DHT22;11047;47.904;8.110;2024-02-26T03:41:25;3.70;99.90
21772;DHT22;11047;47.904;8.110;2024-02-26T03:43:52;3.70;99.90
21772;DHT22;11047;47.904;8.110;2024-02-26T03:46:19;3.80;99.90
21772;DHT22;11047;47.904;8.110;2024-02-26T03:48:47;3.60;99.90
21772;DHT22;11047;47.904;8.110;2024-02-26T03:51:14;4.30;99.90
21772;DHT22;11047;47.904;8.110;2024-02-26T03:53:41;3.50;99.90
21772;DHT22;11047;47.904;8.110;2024-02-26T03:56:08;3.50;99.90
21772;DHT22;11047;47.904;8.110;2024-02-26T03:58:37;3.50;99.90
21772;DHT22;11047;47.904;8.110;2024-02-26T04:01:06;4.20;99.90
21772;DHT22;11047;47.904;8.110;2024-02-26T04:03:33;3.40;99.90
21772;DHT22;11047;47.904;8.110;2024-02-26T04:06:02;3.90;99.90
21772;DHT22;11047;47.904;8.110;2024-02-26T04:08:29;3.50;99.90
21772;DHT22;11047;47.904;8.110;2024-02-26T04:10:56;3.90;99.90
21772;DHT22;11047;47.904;8.110;2024-02-26T04:13:23;4.20;99.90
21772;DHT22;11047;47.904;8.110;2024-02-26T04:15:50;3.50;99.90
21772;DHT22;11047;47.904;8.110;2024-02-26T04:18:17;3.60;99.90
21772;DHT22;11047;47.904;8.110;2024-02-26T04:20:44;4.10;99.90
21772;DHT22;11047;47.904;8.110;2024-02-26T04:23:12;4.30;99.90
21772;DHT22;11047;47.904;8.110;2024-02-26T04:25:39;4.20;99.90
21772;DHT22;11047;47.904;8.110;2024-02-26T04:28:06;4.20;99.90
21772;DHT22;11047;47.904;8.110;2024-02-26T04:30:33;4.30;99.90
21772;DHT22;11047;47.904;8.110;2024-02-26T04:33:00;3.80;99.90
21772;DHT22;11047;47.904;8.110;2024-02-26T04:35:27;3.80;99.90
21772;DHT22;11047;47.904;8.110;2024-02-26T04:37:54;3.60;99.90
21772;DHT22;11047;47.904;8.110;2024-02-26T04:40:22;3.60;99.90
21772;DHT22;11047;47.904;8.110;2024-02-26T04:42:49;3.70;99.90
21772;DHT22;11047;47.904;8.110;2024-02-26T04:45:16;3.80;99.90
21772;DHT22;11047;47.904;8.110;2024-02-26T04:47:43;4.20;99.90
21772;DHT22;11047;47.904;8.110;2024-02-26T04:50:10;3.60;99.90
21772;DHT22;11047;47.904;8.110;2024-02-26T04:52:37;4.00;99.90
21772;DHT22;11047;47.904;8.110;2024-02-26T04:55:04;4.60;99.90
21772;DHT22;11047;47.904;8.110;2024-02-26T04:57:32;3.70;99.90
21772;DHT22;11047;47.904;8.110;2024-02-26T04:59:59;3.70;99.90
21772;DHT22;11047;47.904;8.110;2024-02-26T05:02:26;3.70;99.90
21772;DHT22;11047;47.904;8.110;2024-02-26T05:04:53;4.30;99.90
21772;DHT22;11047;47.904;8.110;2024-02-26T05:07:39;3.80;99.90
21772;DHT22;11047;47.904;8.110;2024-02-26T05:10:07;3.70;99.90
21772;DHT22;11047;47.904;8.110;2024-02-26T05:12:35;3.80;99.90
21772;DHT22;11047;47.904;8.110;2024-02-26T05:15:02;3.80;99.90
21772;DHT22;11047;47.904;8.110;2024-02-26T05:17:29;3.80;99.90
21772;DHT22;11047;47.904;8.110;2024-02-26T05:19:56;3.80;99.90
21772;DHT22;11047;47.904;8.110;2024-02-26T05:22:23;4.40;99.90
21772;DHT22;11047;47.904;8.110;2024-02-26T05:24:52;3.90;99.90
21772;DHT22;11047;47.904;8.110;2024-02-26T05:27:24;3.80;99.90
21772;DHT22;11047;47.904;8.110;2024-02-26T05:29:53;3.80;99.90
21772;DHT22;11047;47.904;8.110;2024-02-26T05:32:20;3.80;99.90
21772;DHT22;11047;47.904;8.110;2024-02-26T05:34:47;3.80;99.90
21772;DHT22;11047;47.904;8.110;2024-02-26T05:37:14;3.80;99.90
21772;DHT22;11047;47.904;8.110;2024-02-26T05:39:41;3.90;99.90
21772;DHT22;11047;47.904;8.110;2024-02-26T05:42:08;4.00;99.90
21772;DHT22;11047;47.904;8.110;2024-02-26T05:44:35;3.90;99.90
21772;DHT22;11047;47.904;8.110;2024-02-26T05:47:04;4.30;99.90
21772;DHT22;11047;47.904;8.110;2024-02-26T05:49:31;4.60;99.90
21772;DHT22;11047;47.904;8.110;2024-02-26T05:51:59;4.40;99.90
21772;DHT22;11047;47.904;8.110;2024-02-26T05:54:25;4.60;99.90
21772;DHT22;11047;47.904;8.110;2024-02-26T05:56:52;3.90;99.90
21772;DHT22;11047;47.904;8.110;2024-02-26T05:59:19;3.90;99.90
21772;DHT22;11047;47.904;8.110;2024-02-26T06:09:11;3.90;99.90
21772;DHT22;11047;47.904;8.110;2024-02-26T06:19:06;3.80;99.90
21772;DHT22;11047;47.904;8.110;2024-02-26T06:22:29;5.00;99.90
21772;DHT22;11047;47.904;8.110;2024-02-26T07:16:19;3.90;99.90
21772;DHT22;11047;47.904;8.110;2024-02-26T07:46:47;3.90;99.90
21772;DHT22;11047;47.904;8.110;2024-02-26T07:49:22;2.90;99.90
21772;DHT22;11047;47.904;8.110;2024-02-26T07:51:55;4.30;99.90
21772;DHT22;11047;47.904;8.110;2024-02-26T07:54:35;4.30;99.90
21772;DHT22;11047;47.904;8.110;2024-02-26T07:57:07;4.50;99.90
21772;DHT22;11047;47.904;8.110;2024-02-26T07:59:37;4.50;99.90
21772;DHT22;11047;47.904;8.110;2024-02-26T08:02:06;4.10;99.90
21772;DHT22;11047;47.904;8.110;2024-02-26T08:04:41;4.80;99.90
21772;DHT22;11047;47.904;8.110;2024-02-26T08:07:31;5.00;99.90
21772;DHT22;11047;47.904;8.110;2024-02-26T08:10:27;4.40;99.90
21772;DHT22;11047;47.904;8.110;2024-02-26T08:13:27;5.00;99.90
21772;DHT22;11047;47.904;8.110;2024-02-26T08:16:20;5.10;99.90
21772;DHT22;11047;47.904;8.110;2024-02-26T08:19:38;5.60;99.90
21772;DHT22;11047;47.904;8.110;2024-02-26T08:25:07;5.60;99.90
21772;DHT22;11047;47.904;8.110;2024-02-26T08:28:13;6.10;99.90
21772;DHT22;11047;47.904;8.110;2024-02-26T08:34:21;6.50;99.90
21772;DHT22;11047;47.904;8.110;2024-02-26T09:04:25;7.40;99.90
21772;DHT22;11047;47.904;8.110;2024-02-26T09:11:25;7.50;99.90
21772;DHT22;11047;47.904;8.110;2024-02-26T09:47:24;10.30;99.90
21772;DHT22;11047;47.904;8.110;2024-02-26T11:02:56;10.70;99.90
21772;DHT22;11047;47.904;8.110;2024-02-26T11:06:01;10.60;99.90
21772;DHT22;11047;47.904;8.110;2024-02-26T11:12:27;10.60;99.90
21772;DHT22;11047;47.904;8.110;2024-02-26T11:19:12;10.70;99.90
21772;DHT22;11047;47.904;8.110;2024-02-26T11:25:41;10.70;99.90
21772;DHT22;11047;47.904;8.110;2024-02-26T12:02:47;10.90;99.90
21772;DHT22;11047;47.904;8.110;2024-02-26T12:05:19;10.80;99.90
21772;DHT22;11047;47.904;8.110;2024-02-26T12:07:52;10.80;99.90
21772;DHT22;11047;47.904;8.110;2024-02-26T12:10:23;10.80;99.90
21772;DHT22;11047;47.904;8.110;2024-02-26T12:13:10;10.70;99.90
21772;DHT22;11047;47.904;8.110;2024-02-26T12:15:39;10.70;99.90
21772;DHT22;11047;47.904;8.110;2024-02-26T12:18:08;10.70;99.90
21772;DHT22;11047;47.904;8.110;2024-02-26T12:20:37;10.60;99.90
21772;DHT22;11047;47.904;8.110;2024-02-26T12:23:06;10.60;99.90
21772;DHT22;11047;47.904;8.110;2024-02-26T12:25:33;10.60;99.90
21772;DHT22;11047;47.904;8.110;2024-02-26T12:28:01;10.70;99.90
21772;DHT22;11047;47.904;8.110;2024-02-26T12:30:31;10.60;99.90
21772;DHT22;11047;47.904;8.110;2024-02-26T12:32:58;10.60;99.90
21772;DHT22;11047;47.904;8.110;2024-02-26T12:35:29;10.70;99.90
21772;DHT22;11047;47.904;8.110;2024-02-26T12:38:04;10.70;99.90
21772;DHT22;11047;47.904;8.110;2024-02-26T12:41:06;10.60;99.90
21772;DHT22;11047;47.904;8.110;2024-02-26T12:43:38;10.30;99.90
21772;DHT22;11047;47.904;8.110;2024-02-26T12:46:11;10.60;99.90
21772;DHT22;11047;47.904;8.110;2024-02-26T12:49:14;10.70;99.90
21772;DHT22;11047;47.904;8.110;2024-02-26T12:52:06;10.70;99.90
21772;DHT22;11047;47.904;8.110;2024-02-26T12:54:54;10.40;99.90
21772;DHT22;11047;47.904;8.110;2024-02-26T12:57:42;10.80;99.90
21772;DHT22;11047;47.904;8.110;2024-02-26T13:03:41;10.90;99.90
21772;DHT22;11047;47.904;8.110;2024-02-26T13:06:24;11.20;99.90
21772;DHT22;11047;47.904;8.110;2024-02-26T13:09:08;11.20;99.90
21772;DHT22;11047;47.904;8.110;2024-02-26T13:11:36;11.30;99.90
21772;DHT22;11047;47.904;8.110;2024-02-26T13:14:06;11.40;99.90
21772;DHT22;11047;47.904;8.110;2024-02-26T13:16:33;11.40;99.90
21772;DHT22;11047;47.904;8.110;2024-02-26T13:19:08;11.20;99.90
21772;DHT22;11047;47.904;8.110;2024-02-26T13:21:35;11.30;99.90
21772;DHT22;11047;47.904;8.110;2024-02-26T13:24:03;11.30;99.90
21772;DHT22;11047;47.904;8.110;2024-02-26T13:26:31;11.40;99.90
21772;DHT22;11047;47.904;8.110;2024-02-26T13:29:01;11.40;99.90
21772;DHT22;11047;47.904;8.110;2024-02-26T13:31:29;11.40;99.90
21772;DHT22;11047;47.904;8.110;2024-02-26T13:33:56;11.40;99.90
21772;DHT22;11047;47.904;8.110;2024-02-26T13:36:24;11.40;99.90
21772;DHT22;11047;47.904;8.110;2024-02-26T13:38:51;11.30;99.90
21772;DHT22;11047;47.904;8.110;2024-02-26T13:41:20;11.20;99.90
21772;DHT22;11047;47.904;8.110;2024-02-26T13:43:49;11.10;99.90
21772;DHT22;11047;47.904;8.110;2024-02-26T13:46:18;11.10;99.90
21772;DHT22;11047;47.904;8.110;2024-02-26T13:49:17;11.20;99.90
21772;DHT22;11047;47.904;8.110;2024-02-26T13:52:02;11.20;99.90
21772;DHT22;11047;47.904;8.110;2024-02-26T13:55:03;11.10;99.90
21772;DHT22;11047;47.904;8.110;2024-02-26T13:57:57;11.10;99.90
21772;DHT22;11047;47.904;8.110;2024-02-26T14:03:56;11.00;99.90
21772;DHT22;11047;47.904;8.110;2024-02-26T14:06:24;10.90;99.90
21772;DHT22;11047;47.904;8.110;2024-02-26T14:09:05;10.90;99.90
21772;DHT22;11047;47.904;8.110;2024-02-26T14:12:01;10.40;99.90
21772;DHT22;11047;47.904;8.110;2024-02-26T14:14:31;10.30;99.90
21772;DHT22;11047;47.904;8.110;2024-02-26T14:17:01;10.80;99.90
21772;DHT22;11047;47.904;8.110;2024-02-26T14:19:37;10.80;99.90
21772;DHT22;11047;47.904;8.110;2024-02-26T14:22:08;10.70;99.90
21772;DHT22;11047;47.904;8.110;2024-02-26T14:24:37;10.80;99.90
21772;DHT22;11047;47.904;8.110;2024-02-26T14:27:16;10.90;99.90
21772;DHT22;11047;47.904;8.110;2024-02-26T14:29:46;10.60;99.90
21772;DHT22;11047;47.904;8.110;2024-02-26T14:32:18;10.90;99.90
21772;DHT22;11047;47.904;8.110;2024-02-26T14:34:47;10.40;99.90
21772;DHT22;11047;47.904;8.110;2024-02-26T14:37:18;10.90;99.90
21772;DHT22;11047;47.904;8.110;2024-02-26T14:39:47;10.90;99.90
21772;DHT22;11047;47.904;8.110;2024-02-26T14:42:18;10.90;99.90
21772;DHT22;11047;47.904;8.110;2024-02-26T14:44:45;10.90;99.90
21772;DHT22;11047;47.904;8.110;2024-02-26T14:47:13;10.80;99.90
21772;DHT22;11047;47.904;8.110;2024-02-26T14:49:41;10.80;99.90
21772;DHT22;11047;47.904;8.110;2024-02-26T14:52:36;10.70;99.90
21772;DHT22;11047;47.904;8.110;2024-02-26T14:55:08;10.60;99.90
21772;DHT22;11047;47.904;8.110;2024-02-26T14:57:43;10.50;99.90
21772;DHT22;11047;47.904;8.110;2024-02-26T15:00:16;10.50;99.90
21772;DHT22;11047;47.904;8.110;2024-02-26T15:02:47;10.40;99.90
21772;DHT22;11047;47.904;8.110;2024-02-26T15:05:14;10.30;99.90
21772;DHT22;11047;47.904;8.110;2024-02-26T15:07:47;10.30;99.90
21772;DHT22;11047;47.904;8.110;2024-02-26T15:10:25;10.20;99.90
21772;DHT22;11047;47.904;8.110;2024-02-26T15:12:54;9.90;99.90
21772;DHT22;11047;47.904;8.110;2024-02-26T15:15:23;10.20;99.90
21772;DHT22;11047;47.904;8.110;2024-02-26T15:17:56;10.20;99.90
21772;DHT22;11047;47.904;8.110;2024-02-26T15:20:25;10.10;99.90
21772;DHT22;11047;47.904;8.110;2024-02-26T15:22:57;10.00;99.90
21772;DHT22;11047;47.904;8.110;2024-02-26T15:25:32;10.00;99.90
21772;DHT22;11047;47.904;8.110;2024-02-26T15:28:14;9.40;99.90
21772;DHT22;11047;47.904;8.110;2024-02-26T15:30:43;9.80;99.90
21772;DHT22;11047;47.904;8.110;2024-02-26T15:34:04;9.80;99.90
21772;DHT22;11047;47.904;8.110;2024-02-26T15:37:04;9.80;99.90
21772;DHT22;11047;47.904;8.110;2024-02-26T15:39:40;9.30;99.90
21772;DHT22;11047;47.904;8.110;2024-02-26T15:42:09;9.70;99.90
21772;DHT22;11047;47.904;8.110;2024-02-26T15:44:38;9.60;99.90
21772;DHT22;11047;47.904;8.110;2024-02-26T15:47:07;9.60;99.90
21772;DHT22;11047;47.904;8.110;2024-02-26T15:49:40;9.70;99.90
21772;DHT22;11047;47.904;8.110;2024-02-26T15:52:27;9.70;99.90
21772;DHT22;11047;47.904;8.110;2024-02-26T15:55:14;9.70;99.90
21772;DHT22;11047;47.904;8.110;2024-02-26T15:57:41;9.70;99.90
21772;DHT22;11047;47.904;8.110;2024-02-26T16:00:10;9.90;99.90
21772;DHT22;11047;47.904;8.110;2024-02-26T16:02:37;9.90;99.90
21772;DHT22;11047;47.904;8.110;2024-02-26T16:05:09;9.90;99.90
21772;DHT22;11047;47.904;8.110;2024-02-26T16:07:41;9.90;99.90
21772;DHT22;11047;47.904;8.110;2024-02-26T16:10:11;9.90;99.90
21772;DHT22;11047;47.904;8.110;2024-02-26T16:12:43;9.80;99.90
21772;DHT22;11047;47.904;8.110;2024-02-26T16:15:14;9.70;99.90
21772;DHT22;11047;47.904;8.110;2024-02-26T16:17:45;9.10;99.90
21772;DHT22;11047;47.904;8.110;2024-02-26T16:23:40;9.20;99.90
21772;DHT22;11047;47.904;8.110;2024-02-26T16:26:10;9.40;99.90
21772;DHT22;11047;47.904;8.110;2024-02-26T16:28:38;9.40;99.90
21772;DHT22;11047;47.904;8.110;2024-02-26T16:31:09;9.30;99.90
21772;DHT22;11047;47.904;8.110;2024-02-26T16:33:39;9.20;99.90
21772;DHT22;11047;47.904;8.110;2024-02-26T16:36:20;9.00;99.90
21772;DHT22;11047;47.904;8.110;2024-02-26T16:38:49;9.00;99.90
21772;DHT22;11047;47.904;8.110;2024-02-26T16:41:17;8.90;99.90
21772;DHT22;11047;47.904;8.110;2024-02-26T16:43:52;8.70;99.90
21772;DHT22;11047;47.904;8.110;2024-02-26T16:46:19;8.60;99.90
21772;DHT22;11047;47.904;8.110;2024-02-26T16:48:51;8.50;99.90
21772;DHT22;11047;47.904;8.110;2024-02-26T16:51:24;8.50;99.90
21772;DHT22;11047;47.904;8.110;2024-02-26T16:54:08;8.40;99.90
21772;DHT22;11047;47.904;8.110;2024-02-26T16:56:40;8.30;99.90
21772;DHT22;11047;47.904;8.110;2024-02-26T16:59:15;8.30;99.90
21772;DHT22;11047;47.904;8.110;2024-02-26T17:01:44;8.20;99.90
21772;DHT22;11047;47.904;8.110;2024-02-26T17:04:13;8.10;99.90
21772;DHT22;11047;47.904;8.110;2024-02-26T17:06:41;8.10;99.90
21772;DHT22;11047;47.904;8.110;2024-02-26T17:09:09;8.30;99.90
21772;DHT22;11047;47.904;8.110;2024-02-26T17:11:37;7.90;99.90
21772;DHT22;11047;47.904;8.110;2024-02-26T17:14:07;7.80;99.90
21772;DHT22;11047;47.904;8.110;2024-02-26T17:16:38;7.70;99.90
21772;DHT22;11047;47.904;8.110;2024-02-26T17:19:05;7.70;99.90
21772;DHT22;11047;47.904;8.110;2024-02-26T17:21:36;7.70;99.90
21772;DHT22;11047;47.904;8.110;2024-02-26T17:24:04;7.60;99.90
21772;DHT22;11047;47.904;8.110;2024-02-26T17:26:33;7.60;99.90
21772;DHT22;11047;47.904;8.110;2024-02-26T17:29:04;7.50;99.90
21772;DHT22;11047;47.904;8.110;2024-02-26T17:31:31;7.40;99.90
21772;DHT22;11047;47.904;8.110;2024-02-26T17:34:06;7.30;99.90
21772;DHT22;11047;47.904;8.110;2024-02-26T17:36:35;7.50;99.90
21772;DHT22;11047;47.904;8.110;2024-02-26T17:39:02;7.30;99.90
21772;DHT22;11047;47.904;8.110;2024-02-26T17:41:29;7.20;99.90
21772;DHT22;11047;47.904;8.110;2024-02-26T17:43:56;7.10;99.90
21772;DHT22;11047;47.904;8.110;2024-02-26T17:46:27;7.10;99.90
21772;DHT22;11047;47.904;8.110;2024-02-26T17:48:54;6.90;99.90
21772;DHT22;11047;47.904;8.110;2024-02-26T17:51:21;6.90;99.90
21772;DHT22;11047;47.904;8.110;2024-02-26T17:53:48;6.90;99.90
21772;DHT22;11047;47.904;8.110;2024-02-26T17:56:15;6.60;99.90
21772;DHT22;11047;47.904;8.110;2024-02-26T17:58:42;7.20;99.90
21772;DHT22;11047;47.904;8.110;2024-02-26T18:03:41;6.60;99.90
21772;DHT22;11047;47.904;8.110;2024-02-26T18:06:08;6.60;99.90
21772;DHT22;11047;47.904;8.110;2024-02-26T18:08:35;6.70;99.90
21772;DHT22;11047;47.904;8.110;2024-02-26T18:11:02;6.60;99.90
21772;DHT22;11047;47.904;8.110;2024-02-26T18:13:29;6.50;99.90
21772;DHT22;11047;47.904;8.110;2024-02-26T18:15:56;6.70;99.90
21772;DHT22;11047;47.904;8.110;2024-02-26T18:18:23;6.50;99.90
21772;DHT22;11047;47.904;8.110;2024-02-26T18:20:52;6.30;99.90
21772;DHT22;11047;47.904;8.110;2024-02-26T18:23:19;6.20;99.90
21772;DHT22;11047;47.904;8.110;2024-02-26T18:25:46;6.30;99.90
21772;DHT22;11047;47.904;8.110;2024-02-26T18:28:13;7.00;99.90
21772;DHT22;11047;47.904;8.110;2024-02-26T18:30:39;6.20;99.90
21772;DHT22;11047;47.904;8.110;2024-02-26T18:33:10;6.10;99.90
21772;DHT22;11047;47.904;8.110;2024-02-26T18:35:37;6.40;99.90
21772;DHT22;11047;47.904;8.110;2024-02-26T18:38:05;6.40;99.90
21772;DHT22;11047;47.904;8.110;2024-02-26T18:40:32;6.20;99.90
21772;DHT22;11047;47.904;8.110;2024-02-26T18:42:59;5.90;99.90
21772;DHT22;11047;47.904;8.110;2024-02-26T18:45:29;6.40;99.90
21772;DHT22;11047;47.904;8.110;2024-02-26T18:51:35;5.80;99.90
21772;DHT22;11047;47.904;8.110;2024-02-26T18:54:09;5.80;99.90
21772;DHT22;11047;47.904;8.110;2024-02-26T18:56:38;5.90;99.90
21772;DHT22;11047;47.904;8.110;2024-02-26T18:59:05;5.70;99.90
21772;DHT22;11047;47.904;8.110;2024-02-26T19:01:35;6.40;99.90
21772;DHT22;11047;47.904;8.110;2024-02-26T19:04:04;5.80;99.90
21772;DHT22;11047;47.904;8.110;2024-02-26T19:06:31;5.70;99.90
21772;DHT22;11047;47.904;8.110;2024-02-26T19:09:01;6.30;99.90
21772;DHT22;11047;47.904;8.110;2024-02-26T19:11:30;5.60;99.90
21772;DHT22;11047;47.904;8.110;2024-02-26T19:13:58;6.40;99.90
21772;DHT22;11047;47.904;8.110;2024-02-26T19:16:25;6.20;99.90
21772;DHT22;11047;47.904;8.110;2024-02-26T19:18:53;5.50;99.90
21772;DHT22;11047;47.904;8.110;2024-02-26T19:21:20;5.50;99.90
21772;DHT22;11047;47.904;8.110;2024-02-26T19:23:47;5.50;99.90
21772;DHT22;11047;47.904;8.110;2024-02-26T19:26:14;5.40;99.90
21772;DHT22;11047;47.904;8.110;2024-02-26T19:28:42;5.90;99.90
21772;DHT22;11047;47.904;8.110;2024-02-26T19:31:10;6.10;99.90
21772;DHT22;11047;47.904;8.110;2024-02-26T19:33:37;5.50;99.90
21772;DHT22;11047;47.904;8.110;2024-02-26T19:36:05;5.10;99.90
21772;DHT22;11047;47.904;8.110;2024-02-26T19:38:32;5.00;99.90
21772;DHT22;11047;47.904;8.110;2024-02-26T19:40:59;4.90;99.90
21772;DHT22;11047;47.904;8.110;2024-02-26T19:43:26;5.80;99.90
21772;DHT22;11047;47.904;8.110;2024-02-26T19:45:55;5.80;99.90
21772;DHT22;11047;47.904;8.110;2024-02-26T19:48:22;5.70;99.90
21772;DHT22;11047;47.904;8.110;2024-02-26T19:50:49;5.70;99.90
21772;DHT22;11047;47.904;8.110;2024-02-26T19:53:16;5.60;99.90
21772;DHT22;11047;47.904;8.110;2024-02-26T19:55:43;4.70;99.90
21772;DHT22;11047;47.904;8.110;2024-02-26T19:58:10;5.10;99.90
21772;DHT22;11047;47.904;8.110;2024-02-26T20:00:37;4.90;99.90
21772;DHT22;11047;47.904;8.110;2024-02-26T20:03:05;5.30;99.90
21772;DHT22;11047;47.904;8.110;2024-02-26T20:05:33;5.20;99.90
21772;DHT22;11047;47.904;8.110;2024-02-26T20:08:01;4.60;99.90
21772;DHT22;11047;47.904;8.110;2024-02-26T20:10:29;4.60;99.90
21772;DHT22;11047;47.904;8.110;2024-02-26T20:12:57;4.50;99.90
21772;DHT22;11047;47.904;8.110;2024-02-26T20:15:25;5.60;99.90
21772;DHT22;11047;47.904;8.110;2024-02-26T20:17:52;5.00;99.90
21772;DHT22;11047;47.904;8.110;2024-02-26T20:20:20;5.50;99.90
21772;DHT22;11047;47.904;8.110;2024-02-26T20:22:51;4.70;99.90
21772;DHT22;11047;47.904;8.110;2024-02-26T20:25:18;4.80;99.90
21772;DHT22;11047;47.904;8.110;2024-02-26T20:27:45;4.80;99.90
21772;DHT22;11047;47.904;8.110;2024-02-26T20:30:13;5.00;99.90
21772;DHT22;11047;47.904;8.110;2024-02-26T20:32:40;4.80;99.90
21772;DHT22;11047;47.904;8.110;2024-02-26T20:35:08;4.80;99.90
21772;DHT22;11047;47.904;8.110;2024-02-26T20:37:37;4.80;99.90
21772;DHT22;11047;47.904;8.110;2024-02-26T20:40:07;4.90;99.90
21772;DHT22;11047;47.904;8.110;2024-02-26T20:42:34;4.60;99.90
21772;DHT22;11047;47.904;8.110;2024-02-26T20:45:01;4.60;99.90
21772;DHT22;11047;47.904;8.110;2024-02-26T20:47:28;4.80;99.90
21772;DHT22;11047;47.904;8.110;2024-02-26T20:49:54;4.60;99.90
21772;DHT22;11047;47.904;8.110;2024-02-26T20:52:21;5.00;99.90
21772;DHT22;11047;47.904;8.110;2024-02-26T20:54:50;5.40;99.90
21772;DHT22;11047;47.904;8.110;2024-02-26T20:57:17;4.70;99.90
21772;DHT22;11047;47.904;8.110;2024-02-26T20:59:43;5.10;99.90
21772;DHT22;11047;47.904;8.110;2024-02-26T21:02:10;5.40;99.90
21772;DHT22;11047;47.904;8.110;2024-02-26T21:04:37;4.70;99.90
21772;DHT22;11047;47.904;8.110;2024-02-26T21:07:04;5.10;99.90